Time;durP1;ratioP1;P1;durP2;ratioP2;P2;SDS_P1;SDS_P2;PMS_P1;PMS_P2;Temp;Humidity;BMP_temperature;BMP_pressure;BME280_temperature;BME280_humidity;BME280_pressure;Samples;Min_cycle;Max_cycle;Signal;HPM_P1;HPM_P2
2023/08/05 00:01:28;;;;;;;0.50;0.50;;;;;;;17.44;87.14;95142.91;4322000;32;20304;-65
2023/08/05 00:03:53;;;;;;;2.23;0.87;;;;;;;17.51;87.14;95145.75;4325104;32;20279;-65
2023/08/05 00:06:18;;;;;;;2.33;0.70;;;;;;;17.42;87.33;95155.88;4340673;32;20190;-65
2023/08/05 00:08:44;;;;;;;0.20;0.20;;;;;;;17.32;88.11;95157.09;4329439;32;20249;-65
2023/08/05 00:11:09;;;;;;;0.50;0.50;;;;;;;17.32;87.94;95159.00;4336290;32;20220;-65
2023/08/05 00:13:34;;;;;;;0.40;0.40;;;;;;;17.30;88.60;95158.56;4329664;32;20251;-65
2023/08/05 00:16:03;;;;;;;0.73;0.73;;;;;;;17.29;88.71;95165.81;4344804;32;20201;-65
2023/08/05 00:18:28;;;;;;;0.50;0.50;;;;;;;17.37;88.55;95156.09;4352585;32;20209;-65
2023/08/05 00:20:54;;;;;;;0.30;0.30;;;;;;;17.30;88.99;95151.31;4348375;32;20211;-66
2023/08/05 00:23:19;;;;;;;0.20;0.20;;;;;;;17.39;88.80;95164.59;4343804;32;20209;-65
2023/08/05 00:25:45;;;;;;;0.83;0.83;;;;;;;17.42;88.80;95162.00;4342183;32;20193;-65
2023/08/05 00:28:10;;;;;;;0.30;0.30;;;;;;;17.42;88.58;95163.91;4351081;32;20243;-65
2023/08/05 00:30:36;;;;;;;0.33;0.33;;;;;;;17.37;89.00;95156.88;4348707;32;20295;-66
2023/08/05 00:33:01;;;;;;;0.57;0.57;;;;;;;17.45;88.87;95168.59;4340595;32;20169;-65
2023/08/05 00:35:27;;;;;;;0.23;0.23;;;;;;;17.46;88.94;95154.03;4355091;32;20228;-66
2023/08/05 00:37:52;;;;;;;0.47;0.47;;;;;;;17.44;89.22;95151.72;4348957;32;20239;-65
2023/08/05 00:40:17;;;;;;;0.50;0.50;;;;;;;17.45;89.29;95158.66;4341925;32;20247;-65
2023/08/05 00:42:42;;;;;;;0.10;0.10;;;;;;;17.48;89.19;95151.78;4341049;32;20228;-65
2023/08/05 00:45:08;;;;;;;0.37;0.37;;;;;;;17.49;89.23;95150.69;4354721;32;20189;-65
2023/08/05 00:47:33;;;;;;;0.27;0.27;;;;;;;17.45;89.30;95147.13;4350479;32;20247;-65
2023/08/05 00:50:00;;;;;;;0.30;0.30;;;;;;;17.46;89.55;95154.03;4344661;32;20282;-65
2023/08/05 00:52:25;;;;;;;0.77;0.70;;;;;;;17.42;89.75;95147.81;4342359;32;20203;-65
2023/08/05 00:54:51;;;;;;;1.00;0.63;;;;;;;17.39;89.96;95143.91;4351228;32;20205;-65
2023/08/05 00:57:18;;;;;;;0.20;0.20;;;;;;;17.35;90.82;95144.94;4351148;32;20287;-65
2023/08/05 00:59:44;;;;;;;0.53;0.53;;;;;;;17.37;90.21;95138.09;4341139;32;20193;-65
2023/08/05 01:02:09;;;;;;;4.33;0.63;;;;;;;17.31;90.54;95136.00;4344533;32;20239;-66
2023/08/05 01:04:35;;;;;;;0.30;0.30;;;;;;;17.26;90.53;95141.59;4341945;32;20201;-65
2023/08/05 01:07:02;;;;;;;0.30;0.30;;;;;;;17.23;91.13;95140.41;4343657;32;20209;-65
2023/08/05 01:09:28;;;;;;;0.33;0.33;;;;;;;17.26;90.81;95138.91;4355464;32;20302;-65
2023/08/05 01:11:53;;;;;;;0.47;0.47;;;;;;;17.25;91.03;95138.13;4341939;32;20228;-65
2023/08/05 01:14:19;;;;;;;0.47;0.47;;;;;;;17.15;91.57;95130.56;4353104;32;20220;-65
2023/08/05 01:16:44;;;;;;;1.77;1.00;;;;;;;17.30;91.27;95134.44;4356721;32;20193;-65
2023/08/05 01:19:29;;;;;;;0.53;0.53;;;;;;;17.21;91.74;95123.09;4347854;32;20228;-65
2023/08/05 01:21:55;;;;;;;0.77;0.70;;;;;;;17.26;91.98;95128.97;4345959;32;20193;-65
2023/08/05 01:25:02;;;;;;;0.33;0.33;;;;;;;17.29;91.79;95111.41;4341775;32;20199;-66
2023/08/05 01:27:28;;;;;;;0.57;0.57;;;;;;;17.13;92.66;95103.31;4343398;32;20231;-65
2023/08/05 01:29:53;;;;;;;0.60;0.60;;;;;;;17.10;92.95;95107.47;4344390;32;20293;-66
2023/08/05 01:32:20;;;;;;;0.53;0.47;;;;;;;17.13;93.48;95092.59;4346286;32;20228;-66
2023/08/05 01:34:45;;;;;;;0.40;0.40;;;;;;;17.17;93.15;95088.91;4353632;32;20201;-65
2023/08/05 01:37:11;;;;;;;0.50;0.50;;;;;;;17.02;94.21;95080.81;4346424;32;20181;-66
2023/08/05 01:39:36;;;;;;;0.93;0.93;;;;;;;17.04;94.54;95073.22;4347895;32;20207;-65
2023/08/05 01:42:01;;;;;;;1.10;0.97;;;;;;;17.02;94.77;95070.88;4344490;32;20231;-66
2023/08/05 01:44:27;;;;;;;1.00;1.00;;;;;;;17.02;95.03;95068.19;4359872;32;20189;-66
2023/08/05 01:46:52;;;;;;;0.40;0.40;;;;;;;16.96;95.53;95066.06;4343637;32;20240;-66
2023/08/05 01:49:17;;;;;;;1.83;0.80;;;;;;;16.99;95.38;95060.81;4345462;32;20224;-66
2023/08/05 01:51:43;;;;;;;0.83;0.83;;;;;;;16.90;95.67;95062.06;4347668;32;20189;-66
2023/08/05 01:54:08;;;;;;;3.97;0.63;;;;;;;16.71;96.76;95070.72;4353792;32;20213;-66
2023/08/05 01:56:33;;;;;;;0.60;0.60;;;;;;;16.86;96.39;95070.00;4343240;32;20203;-66
2023/08/05 01:58:58;;;;;;;0.20;0.20;;;;;;;16.82;96.32;95061.09;4357434;32;20242;-65
2023/08/05 02:01:43;;;;;;;0.83;0.47;;;;;;;16.89;95.60;95061.28;4344553;32;20239;-65
2023/08/05 02:04:08;;;;;;;1.07;1.07;;;;;;;16.72;96.84;95066.91;4343636;32;20231;-66
2023/08/05 02:06:33;;;;;;;0.50;0.50;;;;;;;16.72;96.93;95061.56;4358086;32;20197;-66
2023/08/05 02:08:59;;;;;;;0.50;0.50;;;;;;;16.72;96.75;95056.19;4343350;32;20189;-66
2023/08/05 02:11:24;;;;;;;2.30;1.03;;;;;;;16.68;96.64;95049.94;4342787;32;20260;-66
2023/08/05 02:13:49;;;;;;;0.50;0.50;;;;;;;16.82;96.25;95039.66;4343590;32;20245;-66
2023/08/05 02:16:15;;;;;;;0.57;0.57;;;;;;;16.71;96.65;95031.31;4351856;32;20216;-65
2023/08/05 02:18:43;;;;;;;0.87;0.70;;;;;;;16.78;96.28;95033.41;4328795;32;20184;-66
2023/08/05 02:21:08;;;;;;;0.77;0.77;;;;;;;16.75;96.19;95042.13;4341392;32;20247;-66
2023/08/05 02:23:33;;;;;;;0.57;0.57;;;;;;;16.80;95.48;95044.56;4358828;32;20197;-66
2023/08/05 02:26:01;;;;;;;0.40;0.40;;;;;;;16.78;95.78;95052.16;4349741;32;20260;-66
2023/08/05 02:28:26;;;;;;;0.50;0.50;;;;;;;16.76;95.70;95067.81;4337796;32;20201;-66
2023/08/05 02:30:51;;;;;;;0.77;0.77;;;;;;;16.67;96.25;95073.28;4341942;32;20205;-66
2023/08/05 02:33:16;;;;;;;0.20;0.20;;;;;;;16.63;96.33;95079.59;4344159;32;20215;-65
2023/08/05 02:35:42;;;;;;;0.80;0.80;;;;;;;16.59;96.35;95086.78;4339241;32;20189;-65
2023/08/05 02:38:07;;;;;;;0.47;0.47;;;;;;;16.69;95.51;95091.69;4350779;32;20228;-65
2023/08/05 02:40:33;;;;;;;0.33;0.33;;;;;;;16.65;95.94;95090.81;4346943;32;20253;-65
2023/08/05 02:42:58;;;;;;;0.27;0.27;;;;;;;16.77;95.60;95088.12;4340452;32;20197;-65
2023/08/05 02:45:24;;;;;;;0.37;0.37;;;;;;;16.72;94.70;95096.38;4348205;32;20274;-65
2023/08/05 02:47:49;;;;;;;0.30;0.30;;;;;;;16.72;94.79;95099.06;4354388;32;20186;-65
2023/08/05 02:50:14;;;;;;;0.37;0.37;;;;;;;16.79;94.57;95110.00;4329488;32;20194;-65
2023/08/05 02:52:39;;;;;;;0.20;0.20;;;;;;;16.82;94.30;95103.97;4346392;32;20193;-65
2023/08/05 02:55:05;;;;;;;0.10;0.10;;;;;;;16.83;93.90;95095.56;4355244;32;20258;-65
2023/08/05 02:57:31;;;;;;;6.43;0.93;;;;;;;16.89;92.79;95089.97;4349611;32;20189;-65
2023/08/05 02:59:56;;;;;;;0.50;0.50;;;;;;;16.75;92.90;95091.13;4339853;32;20189;-65
2023/08/05 03:02:21;;;;;;;0.83;0.63;;;;;;;16.87;91.77;95084.97;4334505;32;20204;-65
2023/08/05 03:04:47;;;;;;;7.83;0.57;;;;;;;16.90;91.33;95089.62;4340839;32;20189;-65
2023/08/05 03:07:12;;;;;;;0.40;0.40;;;;;;;16.90;91.24;95099.56;4345510;32;20193;-66
2023/08/05 03:09:37;;;;;;;0.13;0.13;;;;;;;16.74;91.94;95097.59;4339673;32;20200;-65
2023/08/05 03:12:07;;;;;;;0.20;0.20;;;;;;;16.66;92.40;95101.19;4340999;32;20256;-65
2023/08/05 03:14:33;;;;;;;0.50;0.50;;;;;;;16.63;92.34;95117.91;4353737;32;20256;-65
2023/08/05 03:16:58;;;;;;;0.30;0.30;;;;;;;16.65;92.35;95114.91;4331668;32;20201;-65
2023/08/05 03:19:24;;;;;;;0.20;0.20;;;;;;;16.59;92.99;95124.28;4334551;32;20219;-65
2023/08/05 03:21:49;;;;;;;0.20;0.20;;;;;;;16.58;92.77;95120.81;4327024;32;20201;-65
2023/08/05 03:24:15;;;;;;;0.30;0.30;;;;;;;16.64;93.50;95129.41;4315380;32;20210;-65
2023/08/05 03:26:40;;;;;;;0.47;0.47;;;;;;;16.48;94.08;95138.09;4324407;32;20203;-65
2023/08/05 03:29:05;;;;;;;0.70;0.70;;;;;;;16.48;94.84;95134.66;4326542;32;20193;-65
2023/08/05 03:31:30;;;;;;;0.30;0.30;;;;;;;16.44;94.83;95139.88;4334769;32;20189;-65
2023/08/05 03:33:56;;;;;;;0.47;0.40;;;;;;;16.44;95.35;95145.25;4322826;32;20208;-65
2023/08/05 03:36:21;;;;;;;0.40;0.40;;;;;;;16.56;95.37;95133.75;4346372;32;20184;-65
2023/08/05 03:38:46;;;;;;;0.33;0.33;;;;;;;16.52;95.35;95124.84;4332751;32;20202;-64
2023/08/05 03:41:12;;;;;;;0.10;0.10;;;;;;;16.45;95.45;95117.34;4341916;32;20190;-65
2023/08/05 03:43:37;;;;;;;0.50;0.50;;;;;;;16.43;95.35;95124.16;4337166;32;20216;-65
2023/08/05 03:46:02;;;;;;;0.17;0.17;;;;;;;16.47;95.64;95125.03;4331541;32;20276;-65
2023/08/05 03:48:28;;;;;;;0.30;0.30;;;;;;;16.40;96.23;95122.94;4331682;32;20277;-65
2023/08/05 03:50:53;;;;;;;0.10;0.10;;;;;;;16.54;95.88;95121.81;4328803;32;20237;-65
2023/08/05 03:53:18;;;;;;;1.57;0.40;;;;;;;16.35;97.09;95123.16;4333855;32;20254;-65
2023/08/05 03:55:44;;;;;;;0.30;0.30;;;;;;;16.34;97.41;95118.91;4330355;32;20245;-65
2023/08/05 03:58:11;;;;;;;0.10;0.10;;;;;;;16.39;96.60;95134.78;4339168;32;20244;-65
2023/08/05 04:00:39;;;;;;;9.40;0.93;;;;;;;16.39;97.29;95134.78;4337844;32;20198;-65
2023/08/05 04:03:05;;;;;;;0.57;0.57;;;;;;;16.27;97.49;95124.03;4330309;32;20213;-65
2023/08/05 04:05:30;;;;;;;0.47;0.47;;;;;;;16.29;97.83;95134.41;4336855;32;20236;-66
2023/08/05 04:07:55;;;;;;;0.93;0.73;;;;;;;16.33;97.54;95146.81;4321488;32;20193;-66
2023/08/05 04:10:22;;;;;;;0.80;0.73;;;;;;;16.34;97.34;95139.56;4323027;32;20204;-65
2023/08/05 04:12:47;;;;;;;0.50;0.50;;;;;;;16.29;97.80;95143.22;4312782;32;20185;-65
2023/08/05 04:15:14;;;;;;;0.20;0.20;;;;;;;16.31;98.18;95153.59;4338571;32;20239;-65
2023/08/05 04:17:39;;;;;;;0.33;0.33;;;;;;;16.40;97.75;95149.72;4340138;32;20235;-65
2023/08/05 04:20:05;;;;;;;0.30;0.30;;;;;;;16.25;97.46;95147.69;4344584;32;20193;-65
2023/08/05 04:22:31;;;;;;;0.70;0.70;;;;;;;16.32;98.26;95142.56;4341750;32;20216;-65
2023/08/05 04:24:57;;;;;;;0.30;0.30;;;;;;;16.24;98.75;95146.13;4340085;32;20193;-65
2023/08/05 04:27:22;;;;;;;0.93;0.93;;;;;;;16.31;98.12;95143.69;4342294;32;20189;-65
2023/08/05 04:29:48;;;;;;;1.47;1.37;;;;;;;16.30;98.72;95136.75;4341422;32;20235;-65
2023/08/05 04:32:14;;;;;;;0.47;0.47;;;;;;;16.37;98.74;95131.66;4340357;32;20203;-67
2023/08/05 04:34:39;;;;;;;0.60;0.60;;;;;;;16.33;98.69;95136.09;4355251;32;20189;-65
2023/08/05 04:37:19;;;;;;;0.53;0.53;;;;;;;16.30;98.26;95131.41;4332402;32;20197;-65
2023/08/05 04:39:45;;;;;;;0.77;0.77;;;;;;;16.19;98.27;95140.22;4350364;32;20190;-65
2023/08/05 04:42:11;;;;;;;0.70;0.70;;;;;;;16.31;98.85;95138.31;4351371;32;20255;-66
2023/08/05 04:44:40;;;;;;;1.27;1.20;;;;;;;16.35;99.49;95138.44;4335921;32;20193;-65
2023/08/05 04:47:06;;;;;;;0.63;0.63;;;;;;;16.27;99.27;95132.06;4351803;32;20211;-65
2023/08/05 04:49:31;;;;;;;0.60;0.53;;;;;;;16.17;98.94;95127.16;4354726;32;20237;-65
2023/08/05 04:51:56;;;;;;;0.60;0.60;;;;;;;16.13;99.19;95132.41;4340205;32;20224;-65
2023/08/05 04:54:25;;;;;;;0.60;0.60;;;;;;;16.31;99.07;95122.25;4348745;32;20193;-65
2023/08/05 04:56:50;;;;;;;4.00;1.07;;;;;;;16.33;98.10;95119.25;4348102;32;20223;-66
2023/08/05 04:59:15;;;;;;;2.20;1.37;;;;;;;16.26;98.44;95119.00;4354317;32;20237;-65
2023/08/05 05:01:41;;;;;;;0.77;0.77;;;;;;;16.21;98.92;95109.31;4345188;32;20193;-65
2023/08/05 05:04:06;;;;;;;1.63;1.63;;;;;;;16.29;99.42;95107.66;4350595;32;20251;-66
2023/08/05 05:06:31;;;;;;;0.67;0.67;;;;;;;16.23;99.37;95109.75;4351376;32;20213;-65
2023/08/05 05:08:57;;;;;;;3.90;0.80;;;;;;;16.15;99.17;95122.16;4348281;32;20193;-66
2023/08/05 05:11:23;;;;;;;2.23;1.33;;;;;;;16.31;98.89;95121.47;4353224;32;20239;-66
2023/08/05 05:13:52;;;;;;;1.10;1.10;;;;;;;16.31;98.88;95126.84;4352900;32;20231;-65
2023/08/05 05:16:18;;;;;;;0.60;0.60;;;;;;;16.36;98.51;95123.94;4352041;32;20190;-65
2023/08/05 05:18:43;;;;;;;0.97;0.97;;;;;;;16.31;98.65;95111.56;4355174;32;20196;-66
2023/08/05 05:21:09;;;;;;;0.90;0.90;;;;;;;16.29;98.46;95119.12;4351815;32;20197;-65
2023/08/05 05:23:35;;;;;;;0.90;0.90;;;;;;;16.33;98.19;95121.94;4340895;32;20211;-66
2023/08/05 05:26:00;;;;;;;1.57;1.47;;;;;;;16.23;98.79;95125.03;4351402;32;20197;-65
2023/08/05 05:28:25;;;;;;;0.70;0.70;;;;;;;16.21;99.25;95127.28;4353417;32;20208;-68
2023/08/05 05:30:51;;;;;;;1.27;0.87;;;;;;;16.30;99.18;95134.09;4343567;32;20203;-66
2023/08/05 05:33:16;;;;;;;0.90;0.90;;;;;;;16.32;98.96;95129.19;4357676;32;20185;-66
2023/08/05 05:35:41;;;;;;;1.40;1.30;;;;;;;16.11;99.34;95128.50;4361148;32;20185;-65
2023/08/05 05:38:07;;;;;;;1.40;1.40;;;;;;;16.18;99.01;95123.37;4344279;32;20197;-65
2023/08/05 05:40:32;;;;;;;1.60;1.13;;;;;;;16.21;98.94;95122.69;4351563;32;20185;-66
2023/08/05 05:42:57;;;;;;;1.00;1.00;;;;;;;16.24;99.12;95131.94;4351371;32;20211;-66
2023/08/05 05:45:23;;;;;;;1.43;1.33;;;;;;;16.18;99.16;95126.06;4342121;32;20277;-65
2023/08/05 05:47:48;;;;;;;1.33;1.33;;;;;;;16.27;99.35;95128.63;4353447;32;20204;-66
2023/08/05 05:50:14;;;;;;;1.30;1.20;;;;;;;16.34;98.16;95136.88;4343634;32;20325;-66
2023/08/05 05:52:39;;;;;;;1.80;1.17;;;;;;;16.26;98.48;95130.50;4341949;32;20197;-65
2023/08/05 05:55:05;;;;;;;3.20;1.97;;;;;;;16.26;98.87;95135.06;4355606;32;20193;-66
2023/08/05 05:57:30;;;;;;;1.60;1.50;;;;;;;16.17;99.42;95140.56;4342326;32;20177;-65
2023/08/05 05:59:56;;;;;;;1.03;1.03;;;;;;;16.30;99.41;95150.16;4341750;32;20259;-65
2023/08/05 06:02:21;;;;;;;0.80;0.80;;;;;;;16.30;99.52;95152.81;4346233;32;20237;-66
2023/08/05 06:04:47;;;;;;;1.13;1.13;;;;;;;16.44;98.91;95169.34;4350422;32;20211;-66
2023/08/05 06:07:13;;;;;;;1.33;1.33;;;;;;;16.34;99.09;95147.59;4357976;32;20186;-66
2023/08/05 06:09:38;;;;;;;1.47;1.37;;;;;;;16.45;98.81;95146.81;4339545;32;20234;-65
2023/08/05 06:12:04;;;;;;;0.80;0.80;;;;;;;16.40;98.97;95138.22;4350640;32;20263;-65
2023/08/05 06:14:29;;;;;;;1.07;1.07;;;;;;;16.38;97.83;95132.44;4357791;32;20216;-65
2023/08/05 06:16:55;;;;;;;1.20;1.20;;;;;;;16.36;97.78;95124.72;4348441;32;20201;-65
2023/08/05 06:19:20;;;;;;;1.07;1.07;;;;;;;16.38;97.76;95135.09;4353678;32;20200;-66
2023/08/05 06:21:46;;;;;;;2.53;2.33;;;;;;;16.26;98.34;95141.22;4347385;32;20211;-65
2023/08/05 06:24:11;;;;;;;1.07;1.07;;;;;;;16.35;98.36;95149.16;4358390;32;20204;-66
2023/08/05 06:26:37;;;;;;;1.00;1.00;;;;;;;16.19;99.59;95146.34;4348968;32;20193;-65
2023/08/05 06:29:03;;;;;;;0.97;0.97;;;;;;;16.28;98.75;95148.91;4342844;32;20193;-66
2023/08/05 06:31:28;;;;;;;0.80;0.80;;;;;;;16.30;98.65;95152.81;4347088;32;20207;-65
2023/08/05 06:33:53;;;;;;;2.43;1.77;;;;;;;16.32;98.74;95160.53;4362656;32;20240;-66
2023/08/05 06:36:18;;;;;;;1.83;1.73;;;;;;;16.29;99.12;95179.94;4356678;32;20242;-66
2023/08/05 06:38:44;;;;;;;1.30;1.30;;;;;;;16.31;98.98;95175.03;4359029;32;20196;-66
2023/08/05 06:41:09;;;;;;;2.60;2.00;;;;;;;16.30;98.76;95168.09;4352586;32;20219;-65
2023/08/05 06:43:34;;;;;;;2.43;2.33;;;;;;;16.37;97.86;95179.84;4340480;32;20215;-66
2023/08/05 06:46:00;;;;;;;1.33;1.33;;;;;;;16.47;97.28;95181.28;4347582;32;20251;-66
2023/08/05 06:48:25;;;;;;;1.50;1.50;;;;;;;16.29;98.00;95175.34;4342089;32;20201;-65
2023/08/05 06:50:50;;;;;;;4.33;2.70;;;;;;;16.31;97.84;95170.44;4353949;32;20204;-66
2023/08/05 06:53:17;;;;;;;1.53;1.50;;;;;;;16.36;98.48;95169.47;4344284;32;20201;-65
2023/08/05 06:55:42;;;;;;;6.07;1.90;;;;;;;16.39;97.90;95166.91;4359947;32;20194;-65
2023/08/05 06:58:07;;;;;;;1.77;1.70;;;;;;;16.46;95.90;95155.63;4342647;32;20197;-65
2023/08/05 07:00:33;;;;;;;1.97;1.87;;;;;;;16.41;96.91;95158.53;4340662;32;20189;-65
2023/08/05 07:02:58;;;;;;;2.57;2.47;;;;;;;16.41;97.10;95170.03;4346821;32;20306;-65
2023/08/05 07:05:23;;;;;;;2.57;2.47;;;;;;;16.48;96.67;95167.56;4353703;32;20225;-65
2023/08/05 07:07:49;;;;;;;1.83;1.73;;;;;;;16.49;96.63;95160.31;4350209;32;20193;-65
2023/08/05 07:10:15;;;;;;;1.87;1.77;;;;;;;16.56;96.75;95181.97;4346084;32;20192;-64
2023/08/05 07:12:40;;;;;;;1.70;1.57;;;;;;;16.60;96.12;95177.50;4355302;32;20197;-65
2023/08/05 07:15:06;;;;;;;2.83;2.63;;;;;;;16.52;95.42;95177.59;4356185;32;20207;-65
2023/08/05 07:17:31;;;;;;;2.00;1.90;;;;;;;16.54;94.47;95172.69;4354586;32;20263;-65
2023/08/05 07:19:57;;;;;;;1.57;1.57;;;;;;;16.56;94.39;95181.97;4342169;32;20247;-65
2023/08/05 07:22:23;;;;;;;1.67;1.63;;;;;;;16.48;94.88;95180.94;4356252;32;20215;-66
2023/08/05 07:24:48;;;;;;;1.13;1.13;;;;;;;16.54;95.64;95178.84;4339579;32;20209;-65
2023/08/05 07:27:13;;;;;;;1.60;1.53;;;;;;;16.54;96.18;95176.16;4357058;32;20189;-65
2023/08/05 07:29:42;;;;;;;1.63;1.53;;;;;;;16.57;95.92;95169.34;4349634;32;20189;-65
2023/08/05 07:32:08;;;;;;;1.63;1.53;;;;;;;16.61;94.60;95151.50;4346341;32;20189;-65
2023/08/05 07:34:33;;;;;;;1.20;1.20;;;;;;;16.61;96.17;95146.94;4355448;32;20236;-65
2023/08/05 07:36:59;;;;;;;1.50;1.50;;;;;;;16.58;96.68;95152.19;4346581;32;20214;-66
2023/08/05 07:39:28;;;;;;;1.07;1.07;;;;;;;16.58;97.03;95158.31;4350313;32;20221;-65
2023/08/05 07:41:53;;;;;;;1.00;1.00;;;;;;;16.68;96.58;95165.12;4333553;32;20272;-65
2023/08/05 07:44:18;;;;;;;3.03;2.47;;;;;;;16.68;96.63;95162.47;4355153;32;20197;-65
2023/08/05 07:46:45;;;;;;;1.17;1.17;;;;;;;16.76;94.78;95173.06;4346762;32;20273;-65
2023/08/05 07:49:12;;;;;;;1.73;1.63;;;;;;;16.76;95.58;95169.59;4354735;32;20176;-65
2023/08/05 07:51:39;;;;;;;1.70;1.60;;;;;;;16.79;96.16;95176.97;4342024;32;20197;-65
2023/08/05 07:54:04;;;;;;;2.33;2.23;;;;;;;16.69;96.25;95180.88;4352125;32;20287;-65
2023/08/05 07:56:30;;;;;;;7.10;5.97;;;;;;;16.73;95.94;95181.00;4341513;32;20249;-66
2023/08/05 07:58:55;;;;;;;3.07;2.97;;;;;;;16.83;94.97;95175.19;4348400;32;20231;-66
2023/08/05 08:01:24;;;;;;;2.30;2.20;;;;;;;16.83;94.83;95177.88;4342254;32;20197;-65
2023/08/05 08:04:01;;;;;;;2.60;2.50;;;;;;;16.75;94.59;95173.41;4341980;32;20197;-65
2023/08/05 08:06:27;;;;;;;1.47;1.43;;;;;;;16.70;94.63;95179.75;4343789;32;20188;-65
2023/08/05 08:08:52;;;;;;;2.57;1.97;;;;;;;16.70;96.10;95171.72;4354209;32;20215;-65
2023/08/05 08:11:17;;;;;;;9.50;8.77;;;;;;;16.71;95.47;95177.88;4346210;32;20211;-66
2023/08/05 08:13:43;;;;;;;1.73;1.63;;;;;;;16.68;95.51;95170.50;4340798;32;20174;-65
2023/08/05 08:16:08;;;;;;;9.63;8.67;;;;;;;16.77;94.90;95176.53;4339497;32;20197;-65
2023/08/05 08:18:34;;;;;;;2.43;2.33;;;;;;;16.78;94.88;95173.53;4344301;32;22641;-65
2023/08/05 08:20:59;;;;;;;5.33;3.43;;;;;;;16.80;95.42;95178.53;4340138;32;20201;-65
2023/08/05 08:23:25;;;;;;;1.63;1.53;;;;;;;16.84;95.30;95176.72;4349126;32;20190;-65
2023/08/05 08:25:50;;;;;;;2.33;2.00;;;;;;;16.77;94.92;95176.53;4340534;32;20189;-65
2023/08/05 08:28:15;;;;;;;1.43;1.33;;;;;;;16.75;94.79;95179.53;4355128;32;20207;-65
2023/08/05 08:30:55;;;;;;;0.97;0.97;;;;;;;16.59;96.49;95172.50;4342722;32;20182;-65
2023/08/05 08:33:21;;;;;;;1.50;1.40;;;;;;;16.81;95.59;95166.72;4348976;32;20291;-65
2023/08/05 08:35:48;;;;;;;2.43;1.43;;;;;;;16.79;96.08;95158.22;4348681;32;20211;-65
2023/08/05 08:38:13;;;;;;;1.97;1.87;;;;;;;16.82;96.38;95158.34;4351411;32;20193;-65
2023/08/05 08:40:46;;;;;;;1.50;1.40;;;;;;;16.87;96.25;95160.00;4340013;32;20211;-66
2023/08/05 08:43:13;;;;;;;1.33;1.33;;;;;;;16.87;95.99;95165.34;4351752;32;20260;-65
2023/08/05 08:45:39;;;;;;;1.00;1.00;;;;;;;17.08;95.53;95165.97;4339864;32;20192;-65
2023/08/05 08:48:07;;;;;;;2.53;1.70;;;;;;;17.08;96.30;95165.19;4340699;32;20345;-65
2023/08/05 08:50:34;;;;;;;0.93;0.93;;;;;;;17.00;96.88;95160.78;4341229;32;20185;-65
2023/08/05 08:53:00;;;;;;;1.60;1.50;;;;;;;17.06;96.27;95168.22;4339928;32;20209;-65
2023/08/05 08:55:26;;;;;;;1.20;1.20;;;;;;;17.11;95.82;95170.69;4356715;32;20266;-65
2023/08/05 08:57:51;;;;;;;1.23;1.23;;;;;;;17.08;94.90;95163.31;4346897;32;20243;-65
2023/08/05 09:00:17;;;;;;;1.47;1.37;;;;;;;17.17;94.64;95166.66;4355249;32;20193;-65
2023/08/05 09:02:43;;;;;;;1.43;1.40;;;;;;;17.16;94.20;95157.03;4341244;32;20201;-65
2023/08/05 09:05:09;;;;;;;2.20;1.50;;;;;;;17.21;93.97;95152.56;4339735;32;20189;-65
2023/08/05 09:07:36;;;;;;;1.30;1.30;;;;;;;17.28;93.79;95152.75;4353981;32;20271;-65
2023/08/05 09:10:06;;;;;;;1.10;1.10;;;;;;;17.28;93.88;95152.75;4355463;32;20207;-65
2023/08/05 09:12:33;;;;;;;1.07;1.07;;;;;;;17.22;94.06;95151.44;4356833;32;20216;-65
2023/08/05 09:14:58;;;;;;;2.03;2.00;;;;;;;17.31;93.23;95154.75;4358033;32;20234;-65
2023/08/05 09:17:24;;;;;;;1.17;1.17;;;;;;;17.43;93.16;95150.16;4347097;32;20248;-65
2023/08/05 09:19:49;;;;;;;1.17;1.17;;;;;;;17.33;94.14;95153.31;4344155;32;20205;-65
2023/08/05 09:22:15;;;;;;;1.67;1.57;;;;;;;17.45;93.68;95147.13;4342037;32;20243;-64
2023/08/05 09:24:40;;;;;;;1.20;1.20;;;;;;;17.52;90.86;95142.72;4352134;32;20192;-65
2023/08/05 09:27:06;;;;;;;1.03;1.03;;;;;;;17.50;90.77;95149.56;4343517;32;20299;-65
2023/08/05 09:29:31;;;;;;;1.03;1.03;;;;;;;17.54;91.62;95147.75;4341891;32;20220;-65
2023/08/05 09:32:01;;;;;;;2.10;1.20;;;;;;;17.61;91.67;95150.66;4355857;32;20185;-65
2023/08/05 09:34:37;;;;;;;1.40;1.40;;;;;;;17.62;91.67;95149.53;4339114;32;20207;-65
2023/08/05 09:37:04;;;;;;;2.67;1.07;;;;;;;17.62;92.09;95148.75;4356835;32;20219;-65
2023/08/05 09:39:47;;;;;;;1.20;1.20;;;;;;;17.55;93.11;95138.59;4357856;32;20192;-65
2023/08/05 09:42:21;;;;;;;1.10;1.10;;;;;;;17.60;92.44;95134.88;4345898;32;20197;-65
2023/08/05 09:44:47;;;;;;;2.47;1.03;;;;;;;17.60;91.19;95141.03;4355453;32;20227;-66
2023/08/05 09:47:17;;;;;;;3.40;1.23;;;;;;;17.49;91.41;95137.25;4356437;32;20199;-65
2023/08/05 09:49:47;;;;;;;0.73;0.73;;;;;;;17.41;93.34;95140.88;4352022;32;20193;-65
2023/08/05 09:52:17;;;;;;;0.83;0.83;;;;;;;17.45;93.84;95139.88;4344230;32;20189;-65
2023/08/05 09:54:50;;;;;;;16.07;1.60;;;;;;;17.53;92.34;95148.88;4347739;32;20303;-65
2023/08/05 09:57:17;;;;;;;1.93;1.83;;;;;;;17.44;92.30;95159.00;4341904;32;20211;-65
2023/08/05 09:59:43;;;;;;;1.07;1.07;;;;;;;17.34;93.87;95148.72;4358036;32;20193;-65
2023/08/05 10:02:11;;;;;;;1.43;1.33;;;;;;;17.40;94.51;95139.31;4342923;32;20246;-65
2023/08/05 10:04:40;;;;;;;1.30;1.20;;;;;;;17.45;94.04;95147.91;4341987;32;20241;-65
2023/08/05 10:07:06;;;;;;;2.30;2.20;;;;;;;17.40;94.17;95145.47;4349921;32;20272;-66
2023/08/05 10:09:31;;;;;;;3.60;3.47;;;;;;;17.40;94.09;95166.16;4343705;32;20204;-65
2023/08/05 10:11:57;;;;;;;6.97;6.27;;;;;;;17.36;94.69;95167.94;4343359;32;20212;-65
2023/08/05 10:14:25;;;;;;;4.93;4.63;;;;;;;17.38;95.81;95157.66;4355235;32;20247;-65
2023/08/05 10:16:51;;;;;;;8.87;8.13;;;;;;;17.43;97.34;95154.75;4340415;32;20231;-65
2023/08/05 10:19:35;;;;;;;11.73;10.03;;;;;;;17.48;97.44;95152.56;4353046;32;20193;-65
2023/08/05 10:22:10;;;;;;;3.00;2.80;;;;;;;17.47;97.26;95148.34;4345260;32;20198;-65
2023/08/05 10:24:56;;;;;;;3.77;3.53;;;;;;;17.46;97.48;95144.09;4348270;32;20188;-65
2023/08/05 10:27:42;;;;;;;1.90;1.83;;;;;;;17.41;97.92;95140.88;4342455;32;20193;-65
2023/08/05 10:30:12;;;;;;;3.60;3.37;;;;;;;17.42;98.17;95137.87;4345258;32;20203;-65
2023/08/05 10:32:54;;;;;;;4.50;4.10;;;;;;;17.43;98.51;95144.00;4345981;32;20181;-68
2023/08/05 10:35:31;;;;;;;9.73;8.93;;;;;;;17.36;99.20;95135.75;4342682;32;20190;-68
2023/08/05 10:38:17;;;;;;;5.23;4.47;;;;;;;17.36;99.55;95139.22;4353703;32;20192;-67
2023/08/05 10:40:46;;;;;;;4.40;4.20;;;;;;;17.30;99.29;95124.47;4342342;32;20194;-67
2023/08/05 10:43:37;;;;;;;2.63;2.53;;;;;;;17.32;99.48;95116.09;4342001;32;20207;-67
2023/08/05 10:46:05;;;;;;;4.37;2.97;;;;;;;17.33;100.00;95112.31;4345770;32;20204;-65
2023/08/05 10:48:49;;;;;;;5.17;4.77;;;;;;;17.32;99.30;95116.09;4354880;32;20189;-65
2023/08/05 10:51:20;;;;;;;3.70;3.17;;;;;;;17.44;99.69;95110.72;4348519;32;20224;-65
2023/08/05 10:53:51;;;;;;;2.73;2.53;;;;;;;17.45;98.90;95104.22;4342500;32;20246;-65
2023/08/05 10:56:17;;;;;;;1.90;1.90;;;;;;;17.47;99.12;95110.00;4341773;32;20205;-65
2023/08/05 10:58:47;;;;;;;2.03;1.93;;;;;;;17.53;97.67;95096.00;4347665;32;20208;-65
2023/08/05 11:01:13;;;;;;;3.43;1.77;;;;;;;17.61;97.65;95101.56;4349946;32;20244;-65
2023/08/05 11:03:40;;;;;;;2.27;2.17;;;;;;;17.58;97.87;95094.22;4351486;32;20193;-65
2023/08/05 11:06:06;;;;;;;2.20;2.10;;;;;;;17.63;97.70;95094.75;4340246;32;20203;-65
2023/08/05 11:08:33;;;;;;;1.73;1.73;;;;;;;17.58;98.26;95083.47;4352187;32;20256;-65
2023/08/05 11:11:07;;;;;;;2.60;2.50;;;;;;;17.74;98.37;95087.00;4345537;32;20201;-65
2023/08/05 11:13:38;;;;;;;2.33;2.23;;;;;;;17.80;97.96;95073.00;4348371;32;20204;-65
2023/08/05 11:16:11;;;;;;;2.07;1.97;;;;;;;17.82;97.98;95075.31;4342470;32;20201;-66
2023/08/05 11:18:38;;;;;;;3.03;2.83;;;;;;;17.82;96.79;95065.38;4353807;32;20198;-66
2023/08/05 11:21:09;;;;;;;2.63;2.53;;;;;;;17.93;96.12;95072.91;4338740;32;20185;-65
2023/08/05 11:23:39;;;;;;;2.13;2.07;;;;;;;17.89;96.10;95066.66;4345228;32;23746;-65
2023/08/05 11:26:05;;;;;;;2.63;2.53;;;;;;;17.96;95.76;95069.53;4344814;32;20270;-65
2023/08/05 11:28:32;;;;;;;2.67;2.57;;;;;;;17.98;96.04;95064.59;4352041;32;20244;-65
2023/08/05 11:30:58;;;;;;;2.87;2.73;;;;;;;18.05;97.71;95062.09;4348843;32;20227;-65
2023/08/05 11:33:23;;;;;;;2.33;2.23;;;;;;;18.10;97.61;95059.91;4341099;32;20189;-66